createdAt,value
2019-05-06T00:01:24.204Z,14.13
2019-05-06T00:03:54.165Z,13.27
2019-05-06T00:06:23.791Z,13.07
2019-05-06T00:08:54.378Z,14.53
2019-05-06T00:11:23.881Z,15.00
2019-05-06T00:13:54.360Z,12.30
2019-05-06T00:16:23.814Z,16.43
2019-05-06T00:18:54.080Z,18.33
2019-05-06T00:21:24.462Z,8.30
2019-05-06T00:24:04.389Z,11.73
2019-05-06T00:26:57.508Z,8.50
2019-05-06T00:29:27.688Z,11.73
2019-05-06T00:31:56.034Z,10.37
2019-05-06T00:34:24.620Z,12.10
2019-05-06T00:36:54.472Z,11.90
2019-05-06T00:39:41.282Z,14.00
2019-05-06T00:42:29.176Z,14.80
2019-05-06T00:44:57.904Z,18.53
2019-05-06T00:47:26.587Z,11.80
2019-05-06T00:49:54.929Z,15.63
2019-05-06T00:52:25.970Z,15.30
2019-05-06T00:54:54.705Z,10.43
2019-05-06T00:57:43.844Z,11.53
2019-05-06T01:00:13.891Z,12.20
2019-05-06T01:02:43.926Z,11.80
2019-05-06T01:05:13.875Z,9.17
2019-05-06T01:07:43.986Z,11.93
2019-05-06T01:10:14.262Z,11.70
2019-05-06T01:12:47.251Z,10.00
2019-05-06T01:15:17.644Z,14.13
2019-05-06T01:17:46.370Z,10.07
2019-05-06T01:20:15.507Z,14.27
2019-05-06T01:22:43.913Z,13.37
2019-05-06T01:25:14.115Z,11.43
2019-05-06T01:27:44.289Z,15.57
2019-05-06T01:30:13.723Z,14.53
2019-05-06T01:32:43.574Z,16.83
2019-05-06T01:35:14.034Z,15.63
2019-05-06T01:37:44.215Z,14.10
2019-05-06T01:40:34.493Z,12.70
2019-05-06T01:43:09.779Z,20.03
2019-05-06T01:45:38.380Z,16.00
2019-05-06T01:48:06.727Z,10.67
2019-05-06T01:50:35.058Z,14.90
2019-05-06T01:53:04.981Z,15.30
2019-05-06T01:55:34.319Z,15.07
2019-05-06T01:58:04.995Z,11.23
2019-05-06T02:00:34.444Z,11.67
2019-05-06T02:03:04.060Z,14.63
2019-05-06T02:05:33.680Z,11.00
2019-05-06T02:08:03.866Z,10.97
2019-05-06T02:10:34.520Z,9.33
2019-05-06T02:13:03.895Z,13.20
2019-05-06T02:15:34.506Z,10.03
2019-05-06T02:18:04.150Z,9.27
2019-05-06T02:20:33.975Z,10.80
2019-05-06T02:23:14.562Z,10.90
2019-05-06T02:25:46.720Z,7.77
2019-05-06T02:28:15.435Z,11.20
2019-05-06T02:31:09.013Z,8.67
2019-05-06T02:33:56.527Z,8.67
2019-05-06T02:36:45.563Z,10.03
2019-05-06T02:39:14.055Z,12.93
2019-05-06T02:41:43.099Z,13.90
2019-05-06T02:44:13.758Z,10.43
2019-05-06T02:46:44.119Z,11.83
2019-05-06T02:49:33.142Z,11.17
2019-05-06T02:52:03.087Z,14.07
2019-05-06T02:54:34.511Z,7.63
2019-05-06T02:57:04.203Z,10.33
2019-05-06T02:59:33.082Z,14.20
2019-05-06T03:02:03.320Z,8.77
2019-05-06T03:04:33.145Z,17.57
2019-05-06T03:07:03.658Z,9.93
2019-05-06T03:09:34.039Z,11.20
2019-05-06T03:12:03.557Z,8.10
2019-05-06T03:14:34.692Z,8.70
2019-05-06T03:17:03.515Z,10.13
2019-05-06T03:19:34.099Z,17.00
2019-05-06T03:22:27.866Z,10.20
2019-05-06T03:25:16.782Z,10.13
2019-05-06T03:27:46.935Z,10.20
2019-05-06T03:30:16.982Z,8.30
2019-05-06T03:33:21.343Z,11.93
2019-05-06T03:35:33.200Z,11.97
2019-05-06T03:37:46.036Z,9.60
2019-05-06T03:40:14.457Z,8.70
2019-05-06T03:42:42.865Z,11.37
2019-05-06T03:45:19.596Z,16.60
2019-05-06T03:47:54.273Z,12.53
2019-05-06T03:50:23.958Z,12.43
2019-05-06T03:52:55.959Z,11.53
2019-05-06T03:55:23.574Z,15.00
2019-05-06T03:57:54.013Z,11.30
2019-05-06T04:00:23.753Z,9.10
2019-05-06T04:02:53.611Z,15.13
2019-05-06T04:05:23.823Z,13.17
2019-05-06T04:07:53.303Z,17.73
2019-05-06T04:10:22.889Z,9.13
2019-05-06T04:12:53.566Z,12.20
2019-05-06T04:15:26.711Z,18.50
2019-05-06T04:17:59.758Z,14.83
2019-05-06T04:20:34.607Z,13.47
2019-05-06T04:23:34.456Z,13.10
2019-05-06T04:26:32.762Z,17.20
2019-05-06T04:29:00.077Z,18.30
2019-05-06T04:31:28.722Z,16.40
2019-05-06T04:34:09.871Z,20.37
2019-05-06T04:36:28.150Z,18.57
2019-05-06T04:38:56.504Z,14.23
2019-05-06T04:41:26.649Z,14.57
2019-05-06T04:43:55.572Z,13.50
2019-05-06T04:46:24.006Z,14.43
2019-05-06T04:48:53.820Z,24.27
2019-05-06T04:51:24.830Z,14.60
2019-05-06T04:53:53.673Z,13.60
2019-05-06T04:56:23.693Z,16.30
2019-05-06T04:58:53.785Z,20.50
2019-05-06T05:01:23.320Z,13.70
2019-05-06T05:03:53.833Z,13.00
2019-05-06T05:06:23.154Z,15.83
2019-05-06T05:08:53.282Z,15.50
2019-05-06T05:11:28.225Z,8.30
2019-05-06T05:14:06.671Z,10.77
2019-05-06T05:16:52.857Z,10.20
2019-05-06T05:19:23.034Z,16.00
2019-05-06T05:21:54.272Z,15.57
2019-05-06T05:24:23.497Z,11.80
2019-05-06T05:26:52.322Z,10.70
2019-05-06T05:29:22.775Z,10.50
2019-05-06T05:31:52.835Z,12.33
2019-05-06T05:34:22.441Z,13.93
2019-05-06T05:36:52.098Z,14.90
2019-05-06T05:39:22.285Z,14.03
2019-05-06T05:41:52.157Z,11.77
2019-05-06T05:44:24.388Z,12.27
2019-05-06T05:46:52.768Z,17.23
2019-05-06T05:49:37.297Z,10.60
2019-05-06T05:52:05.708Z,15.20
2019-05-06T05:54:34.443Z,8.77
2019-05-06T05:57:02.787Z,18.97
2019-05-06T05:59:32.968Z,13.87
2019-05-06T06:02:03.545Z,12.80
2019-05-06T06:04:32.160Z,9.20
2019-05-06T06:07:02.547Z,8.83
2019-05-06T06:09:33.523Z,12.47
2019-05-06T06:12:05.166Z,11.90
2019-05-06T06:14:55.666Z,8.80
2019-05-06T06:17:51.972Z,8.13
2019-05-06T06:20:38.720Z,8.43
2019-05-06T06:23:16.962Z,9.03
2019-05-06T06:25:45.370Z,11.57
2019-05-06T06:28:13.695Z,7.37
2019-05-06T06:31:08.290Z,9.40
2019-05-06T06:33:36.635Z,11.80
2019-05-06T06:36:17.747Z,10.80
2019-05-06T06:38:52.569Z,9.80
2019-05-06T06:41:22.631Z,11.40
2019-05-06T06:43:53.638Z,11.73
2019-05-06T06:46:22.479Z,9.27
2019-05-06T06:48:52.619Z,11.73
2019-05-06T06:51:23.352Z,10.47
2019-05-06T06:53:52.957Z,7.70
2019-05-06T06:56:44.106Z,11.80
2019-05-06T06:59:42.699Z,12.57
2019-05-06T07:02:36.857Z,6.90
2019-05-06T07:05:28.471Z,15.07
2019-05-06T07:07:55.877Z,9.50
2019-05-06T07:10:43.039Z,9.70
2019-05-06T07:13:12.508Z,14.23
2019-05-06T07:15:42.643Z,14.90
2019-05-06T07:18:13.458Z,8.80
2019-05-06T07:20:52.540Z,8.30
2019-05-06T07:23:24.525Z,10.50
2019-05-06T07:25:53.963Z,7.40
2019-05-06T07:28:22.937Z,7.17
2019-05-06T07:30:52.195Z,10.23
2019-05-06T07:33:22.864Z,9.77
2019-05-06T07:35:52.904Z,5.70
2019-05-06T07:38:23.066Z,7.93
2019-05-06T07:40:56.204Z,10.90
2019-05-06T07:43:34.066Z,7.70
2019-05-06T07:46:06.931Z,6.50
2019-05-06T07:48:35.582Z,11.13
2019-05-06T07:51:03.935Z,10.30
2019-05-06T07:53:32.285Z,10.30
2019-05-06T07:56:03.689Z,8.80
2019-05-06T07:58:32.262Z,9.20
2019-05-06T08:01:02.711Z,10.10
2019-05-06T08:03:32.822Z,9.53
2019-05-06T08:06:02.638Z,12.07
2019-05-06T08:08:32.908Z,14.97
2019-05-06T08:11:02.699Z,10.00
2019-05-06T08:13:32.249Z,11.87
2019-05-06T08:16:02.285Z,6.90
2019-05-06T08:18:32.988Z,10.83
2019-05-06T08:21:02.853Z,11.80
2019-05-06T08:23:42.816Z,11.93
2019-05-06T08:26:14.035Z,8.50
2019-05-06T08:28:44.480Z,10.43
2019-05-06T08:31:12.856Z,12.70
2019-05-06T08:33:43.156Z,11.70
2019-05-06T08:36:15.857Z,10.87
2019-05-06T08:38:57.154Z,7.37
2019-05-06T08:41:26.140Z,10.93
2019-05-06T08:43:54.666Z,12.33
2019-05-06T08:46:23.703Z,8.50
2019-05-06T08:48:52.727Z,7.97
2019-05-06T08:51:34.337Z,6.93
2019-05-06T08:54:07.283Z,12.50
2019-05-06T08:56:35.974Z,17.37
2019-05-06T08:59:04.377Z,9.70
2019-05-06T09:01:50.156Z,10.10
2019-05-06T09:04:18.508Z,9.40
2019-05-06T09:06:46.899Z,13.00
2019-05-06T09:09:15.504Z,9.17
2019-05-06T09:11:43.819Z,7.30
2019-05-06T09:14:13.661Z,11.43
2019-05-06T09:16:43.791Z,6.90
2019-05-06T09:19:13.147Z,10.50
2019-05-06T09:21:45.377Z,6.60
2019-05-06T09:24:12.823Z,9.73
2019-05-06T09:26:45.369Z,8.77
2019-05-06T09:29:36.032Z,7.47
2019-05-06T09:32:09.266Z,7.40
2019-05-06T09:34:59.852Z,6.23
2019-05-06T09:37:28.205Z,7.87
2019-05-06T09:39:57.313Z,15.47
2019-05-06T09:42:26.699Z,6.37
2019-05-06T09:44:55.077Z,9.77
2019-05-06T09:47:33.078Z,4.90
2019-05-06T09:50:02.900Z,6.30
2019-05-06T09:52:33.348Z,6.40
2019-05-06T09:55:16.004Z,6.70
2019-05-06T09:58:15.816Z,6.87
2019-05-06T10:00:46.385Z,8.00
2019-05-06T10:03:15.020Z,10.53
2019-05-06T10:05:43.473Z,5.90
2019-05-06T10:08:12.369Z,8.93
2019-05-06T10:10:53.750Z,8.27
2019-05-06T10:13:12.866Z,6.10
2019-05-06T10:15:42.884Z,5.40
2019-05-06T10:18:13.245Z,7.93
2019-05-06T10:20:43.338Z,7.90
2019-05-06T10:23:12.025Z,9.03
2019-05-06T10:25:43.363Z,8.10
2019-05-06T10:28:16.686Z,11.53
2019-05-06T10:30:45.088Z,6.83
2019-05-06T10:33:16.731Z,8.30
2019-05-06T10:35:45.122Z,7.40
2019-05-06T10:38:19.147Z,8.60
2019-05-06T10:41:00.739Z,7.37
2019-05-06T10:43:24.183Z,10.70
2019-05-06T10:45:52.549Z,4.83
2019-05-06T10:48:22.462Z,5.40
2019-05-06T10:50:53.576Z,7.40
2019-05-06T10:53:23.637Z,6.83
2019-05-06T10:55:53.909Z,4.97
2019-05-06T10:58:22.768Z,8.10
2019-05-06T11:00:56.461Z,7.07
2019-05-06T11:03:27.452Z,5.37
2019-05-06T11:05:54.973Z,7.03
2019-05-06T11:08:23.350Z,8.37
2019-05-06T11:10:53.412Z,4.87
2019-05-06T11:13:24.202Z,4.67
2019-05-06T11:15:52.801Z,6.20
2019-05-06T11:18:23.378Z,8.80
2019-05-06T11:20:55.778Z,9.90
2019-05-06T11:23:22.255Z,4.87
2019-05-06T11:25:52.539Z,4.50
2019-05-06T11:28:58.668Z,10.50
2019-05-06T11:31:33.184Z,5.03
2019-05-06T11:34:17.904Z,6.17
2019-05-06T11:36:52.196Z,8.20
2019-05-06T11:39:20.098Z,7.53
2019-05-06T11:42:01.377Z,7.67
2019-05-06T11:44:18.649Z,7.00
2019-05-06T11:46:47.369Z,9.10
2019-05-06T11:49:23.341Z,4.60
2019-05-06T11:51:51.732Z,7.93
2019-05-06T11:54:21.560Z,4.50
2019-05-06T11:56:55.488Z,9.37
2019-05-06T11:59:22.778Z,7.43
2019-05-06T12:01:54.447Z,6.10
2019-05-06T12:04:23.527Z,3.70
2019-05-06T12:06:52.606Z,4.67
2019-05-06T12:09:22.341Z,5.37
2019-05-06T12:11:52.861Z,9.30
2019-05-06T12:14:22.699Z,4.00
2019-05-06T12:16:54.738Z,5.37
2019-05-06T12:19:22.518Z,8.23
2019-05-06T12:21:51.333Z,8.90
2019-05-06T12:24:19.719Z,5.57
2019-05-06T12:26:48.044Z,5.80
2019-05-06T12:29:16.364Z,6.70
2019-05-06T12:31:46.994Z,5.93
2019-05-06T12:34:15.320Z,7.77
2019-05-06T12:36:43.672Z,4.67
2019-05-06T12:39:25.679Z,5.50
2019-05-06T12:42:10.629Z,5.70
2019-05-06T12:44:40.424Z,5.93
2019-05-06T12:47:32.923Z,8.03
2019-05-06T12:50:02.728Z,7.73
2019-05-06T12:52:32.291Z,5.17
2019-05-06T12:55:17.552Z,4.13
2019-05-06T12:57:34.128Z,3.70
2019-05-06T13:00:03.500Z,5.90
2019-05-06T13:02:32.786Z,4.03
2019-05-06T13:05:03.927Z,5.20
2019-05-06T13:07:42.057Z,7.33
2019-05-06T13:10:12.958Z,7.57
2019-05-06T13:12:42.464Z,3.53
2019-05-06T13:15:13.211Z,4.73
2019-05-06T13:17:42.574Z,7.27
2019-05-06T13:20:14.604Z,3.73
2019-05-06T13:23:15.886Z,4.63
2019-05-06T13:25:43.035Z,5.83
2019-05-06T13:28:12.923Z,6.13
2019-05-06T13:30:43.323Z,4.70
2019-05-06T13:33:18.734Z,4.30
2019-05-06T13:35:47.177Z,4.77
2019-05-06T13:38:15.588Z,5.50
2019-05-06T13:40:53.849Z,6.33
2019-05-06T13:43:45.466Z,6.63
2019-05-06T13:46:19.944Z,4.17
2019-05-06T13:49:22.917Z,4.40
2019-05-06T13:52:03.497Z,7.07
2019-05-06T13:54:29.812Z,7.93
2019-05-06T13:56:58.142Z,6.30
2019-05-06T13:59:30.147Z,6.00
2019-05-06T14:02:06.694Z,7.77
2019-05-06T14:04:35.051Z,7.63
2019-05-06T14:07:09.509Z,5.57
2019-05-06T14:09:40.178Z,11.23
2019-05-06T14:12:08.752Z,6.53
2019-05-06T14:14:37.087Z,4.47
2019-05-06T14:17:05.878Z,4.27
2019-05-06T14:19:34.228Z,4.40
2019-05-06T14:22:03.137Z,6.23
2019-05-06T14:24:32.767Z,5.00
2019-05-06T14:27:05.375Z,4.23
2019-05-06T14:29:38.296Z,6.20
2019-05-06T14:32:06.627Z,6.47
2019-05-06T14:34:34.960Z,8.27
2019-05-06T14:37:03.312Z,6.03
2019-05-06T14:39:49.143Z,5.90
2019-05-06T14:42:05.040Z,8.27
2019-05-06T14:44:33.417Z,7.70
2019-05-06T14:47:06.421Z,6.30
2019-05-06T14:49:35.220Z,8.37
2019-05-06T14:52:04.535Z,7.40
2019-05-06T14:54:35.131Z,6.50
2019-05-06T14:57:12.176Z,5.83
2019-05-06T14:59:42.176Z,6.23
2019-05-06T15:02:13.204Z,5.03
2019-05-06T15:04:43.474Z,4.53
2019-05-06T15:07:12.752Z,6.70
2019-05-06T15:09:58.081Z,5.07
2019-05-06T15:12:12.944Z,4.50
2019-05-06T15:14:42.442Z,4.67
2019-05-06T15:17:11.114Z,6.03
2019-05-06T15:19:39.547Z,7.13
2019-05-06T15:22:07.882Z,6.50
2019-05-06T15:24:36.232Z,5.03
2019-05-06T15:27:05.619Z,6.60
2019-05-06T15:29:33.948Z,4.07
2019-05-06T15:32:15.704Z,5.23
2019-05-06T15:34:55.864Z,7.03
2019-05-06T15:37:29.668Z,6.20
2019-05-06T15:39:58.024Z,7.20
2019-05-06T15:42:26.453Z,5.40
2019-05-06T15:44:54.883Z,4.73
2019-05-06T15:47:23.226Z,5.30
2019-05-06T15:49:52.638Z,4.70
2019-05-06T15:52:23.449Z,5.93
2019-05-06T15:54:52.424Z,5.87
2019-05-06T15:57:22.868Z,12.07
2019-05-06T15:59:52.954Z,6.87
2019-05-06T16:02:23.335Z,6.53
2019-05-06T16:04:52.383Z,6.83
2019-05-06T16:07:25.192Z,6.03
2019-05-06T16:09:54.953Z,6.53
2019-05-06T16:12:22.096Z,5.27
2019-05-06T16:14:53.097Z,5.30
2019-05-06T16:17:23.569Z,6.50
2019-05-06T16:19:51.226Z,4.97
2019-05-06T16:22:19.608Z,5.73
2019-05-06T16:24:55.323Z,5.90
2019-05-06T16:27:23.746Z,5.50
2019-05-06T16:29:53.000Z,8.13
2019-05-06T16:32:22.061Z,5.93
2019-05-06T16:34:52.383Z,6.80
2019-05-06T16:37:22.291Z,6.03
2019-05-06T16:39:54.145Z,6.03
2019-05-06T16:42:22.497Z,9.63
2019-05-06T16:44:52.670Z,6.60
2019-05-06T16:47:37.085Z,5.90
2019-05-06T16:50:07.480Z,6.33
2019-05-06T16:52:35.799Z,7.43
2019-05-06T16:55:04.876Z,7.00
2019-05-06T16:57:33.384Z,5.87
2019-05-06T17:00:02.966Z,6.87
2019-05-06T17:02:39.143Z,5.97
2019-05-06T17:05:30.024Z,6.37
2019-05-06T17:07:59.432Z,6.23
2019-05-06T17:10:27.966Z,9.87
2019-05-06T17:12:56.310Z,5.33
2019-05-06T17:15:24.730Z,6.77
2019-05-06T17:17:53.263Z,6.23
2019-05-06T17:20:22.779Z,6.00
2019-05-06T17:22:53.162Z,7.40
2019-05-06T17:25:22.432Z,6.13
2019-05-06T17:27:52.680Z,6.37
2019-05-06T17:30:33.172Z,7.20
2019-05-06T17:33:22.434Z,6.63
2019-05-06T17:35:52.174Z,7.47
2019-05-06T17:38:25.191Z,6.17
2019-05-06T17:40:53.595Z,9.03
2019-05-06T17:43:22.555Z,10.80
2019-05-06T17:46:02.315Z,8.53
2019-05-06T17:48:45.210Z,7.23
2019-05-06T17:51:27.610Z,7.20
2019-05-06T17:53:56.227Z,6.80
2019-05-06T17:56:24.907Z,7.13
2019-05-06T17:58:53.464Z,6.10
2019-05-06T18:01:27.034Z,5.80
2019-05-06T18:03:55.356Z,5.83
2019-05-06T18:06:24.047Z,9.93
2019-05-06T18:08:52.887Z,6.43
2019-05-06T18:11:22.392Z,5.30
2019-05-06T18:13:52.143Z,6.00
2019-05-06T18:16:22.287Z,8.90
2019-05-06T18:18:52.293Z,9.90
2019-05-06T18:21:22.945Z,7.60
2019-05-06T18:23:52.264Z,12.10
2019-05-06T18:26:23.002Z,7.70
2019-05-06T18:28:52.685Z,9.50
2019-05-06T18:31:22.141Z,7.07
2019-05-06T18:33:52.650Z,11.37
2019-05-06T18:36:22.664Z,7.63
2019-05-06T18:38:52.567Z,6.10
2019-05-06T18:41:23.412Z,6.13
2019-05-06T18:43:53.310Z,9.13
2019-05-06T18:46:21.644Z,6.73
2019-05-06T18:48:52.358Z,10.20
2019-05-06T18:51:22.358Z,9.80
2019-05-06T18:53:52.476Z,6.37
2019-05-06T18:56:22.362Z,6.80
2019-05-06T18:58:53.107Z,7.40
2019-05-06T19:01:23.258Z,9.00
2019-05-06T19:04:03.265Z,7.03
2019-05-06T19:06:32.705Z,7.13
2019-05-06T19:09:15.815Z,6.17
2019-05-06T19:11:44.158Z,6.63
2019-05-06T19:14:12.709Z,6.77
2019-05-06T19:16:49.658Z,7.00
2019-05-06T19:19:12.437Z,8.40
2019-05-06T19:21:42.854Z,6.70
2019-05-06T19:24:12.258Z,8.10
2019-05-06T19:26:42.979Z,5.60
2019-05-06T19:29:12.238Z,8.70
2019-05-06T19:31:42.535Z,6.73
2019-05-06T19:34:12.936Z,9.10
2019-05-06T19:36:42.221Z,7.70
2019-05-06T19:39:12.734Z,12.17
2019-05-06T19:41:40.901Z,6.33
2019-05-06T19:44:09.349Z,9.77
2019-05-06T19:46:37.990Z,11.90
2019-05-06T19:49:06.775Z,10.90
2019-05-06T19:51:35.464Z,8.63
2019-05-06T19:54:03.862Z,10.60
2019-05-06T19:56:32.228Z,11.60
2019-05-06T19:59:02.127Z,9.97
2019-05-06T20:01:32.316Z,10.70
2019-05-06T20:04:02.536Z,7.73
2019-05-06T20:06:55.071Z,7.70
2019-05-06T20:09:34.175Z,8.23
2019-05-06T20:12:04.613Z,7.80
2019-05-06T20:14:33.039Z,8.13
2019-05-06T20:17:03.760Z,10.50
2019-05-06T20:19:33.952Z,9.57
2019-05-06T20:22:02.924Z,10.60
2019-05-06T20:24:33.313Z,11.07
2019-05-06T20:27:02.335Z,9.70
2019-05-06T20:29:32.996Z,8.33
2019-05-06T20:32:00.973Z,11.30
2019-05-06T20:34:29.305Z,9.80
2019-05-06T20:36:57.643Z,15.87
2019-05-06T20:39:26.395Z,11.90
2019-05-06T20:41:54.761Z,14.33
2019-05-06T20:44:23.154Z,11.87
2019-05-06T20:46:52.651Z,14.10
2019-05-06T20:49:21.552Z,13.47
2019-05-06T20:51:51.989Z,10.83
2019-05-06T20:54:19.972Z,11.60
2019-05-06T20:56:48.368Z,9.80
2019-05-06T20:59:16.763Z,11.33
2019-05-06T21:01:45.662Z,12.37
2019-05-06T21:04:14.067Z,12.57
2019-05-06T21:06:42.732Z,10.20
2019-05-06T21:09:12.558Z,11.10
2019-05-06T21:11:42.163Z,11.13
2019-05-06T21:14:13.093Z,15.50
2019-05-06T21:16:42.282Z,12.97
2019-05-06T21:19:12.675Z,11.97
2019-05-06T21:21:43.217Z,11.03
2019-05-06T21:24:13.005Z,11.87
2019-05-06T21:26:42.851Z,14.20
2019-05-06T21:29:12.768Z,15.23
2019-05-06T21:31:42.288Z,14.03
2019-05-06T21:34:12.851Z,17.73
2019-05-06T21:36:42.251Z,14.43
2019-05-06T21:39:12.937Z,13.30
2019-05-06T21:41:42.665Z,15.23
2019-05-06T21:44:13.022Z,17.73
2019-05-06T21:46:42.962Z,15.40
2019-05-06T21:49:12.095Z,18.43
2019-05-06T21:51:42.581Z,17.73
2019-05-06T21:54:12.522Z,20.00
2019-05-06T21:56:42.436Z,20.37
2019-05-06T21:59:12.890Z,20.43
2019-05-06T22:01:42.971Z,19.83
2019-05-06T22:04:12.865Z,18.33
2019-05-06T22:06:42.878Z,17.63
2019-05-06T22:09:12.503Z,15.90
2019-05-06T22:11:42.353Z,22.07
2019-05-06T22:14:12.320Z,17.00
2019-05-06T22:16:43.503Z,17.00
2019-05-06T22:19:14.121Z,20.73
2019-05-06T22:21:59.508Z,18.30
2019-05-06T22:24:39.546Z,19.43
2019-05-06T22:27:07.917Z,22.27
2019-05-06T22:29:36.254Z,24.00
2019-05-06T22:32:04.618Z,22.60
2019-05-06T22:34:33.046Z,21.70
2019-05-06T22:37:03.355Z,23.93
2019-05-06T22:39:34.109Z,28.10
2019-05-06T22:42:01.696Z,31.90
2019-05-06T22:44:32.323Z,32.43
2019-05-06T22:47:00.096Z,26.00
2019-05-06T22:49:28.440Z,27.90
2019-05-06T22:51:56.785Z,27.63
2019-05-06T22:54:25.439Z,26.80
2019-05-06T22:56:54.642Z,24.73
2019-05-06T22:59:24.609Z,26.50
2019-05-06T23:02:09.831Z,29.53
2019-05-06T23:04:39.137Z,26.47
2019-05-06T23:07:07.475Z,31.13
2019-05-06T23:09:35.855Z,29.60
2019-05-06T23:12:04.790Z,30.37
2019-05-06T23:14:36.952Z,26.90
2019-05-06T23:17:03.649Z,28.93
2019-05-06T23:19:31.999Z,30.53
2019-05-06T23:22:03.958Z,29.53
2019-05-06T23:24:32.164Z,33.50
2019-05-06T23:27:02.377Z,34.33
2019-05-06T23:29:30.816Z,30.97
2019-05-06T23:31:59.132Z,37.00
2019-05-06T23:34:27.470Z,37.57
2019-05-06T23:37:23.011Z,37.87
2019-05-06T23:40:12.625Z,38.20
2019-05-06T23:42:59.777Z,38.63
2019-05-06T23:45:46.052Z,34.70
2019-05-06T23:48:32.539Z,32.07
2019-05-06T23:51:19.208Z,34.97
2019-05-06T23:54:05.667Z,32.97
2019-05-06T23:56:43.733Z,33.57
2019-05-06T23:59:13.402Z,31.97
